createdAt,value
2022-12-18T00:02:36.118Z,-5.10
2022-12-18T00:07:37.757Z,-5.09
2022-12-18T00:12:39.270Z,-5.06
2022-12-18T00:17:40.861Z,-5.16
2022-12-18T00:22:42.344Z,-5.38
2022-12-18T00:27:43.854Z,-5.35
2022-12-18T00:32:45.394Z,-5.12
2022-12-18T00:37:46.905Z,-5.24
2022-12-18T00:42:48.488Z,-5.18
2022-12-18T00:47:50.013Z,-5.30
2022-12-18T00:52:52.024Z,-5.54
2022-12-18T00:57:53.630Z,-5.73
2022-12-18T01:02:55.192Z,-5.82
2022-12-18T01:07:56.892Z,-6.02
2022-12-18T01:12:58.430Z,-5.79
2022-12-18T01:17:59.987Z,-5.33
2022-12-18T01:23:02.163Z,-5.31
2022-12-18T01:28:04.029Z,-5.18
2022-12-18T01:33:07.525Z,-4.99
2022-12-18T01:38:10.599Z,-4.89
2022-12-18T01:43:12.661Z,-4.93
2022-12-18T01:48:15.037Z,-4.97
2022-12-18T01:53:24.069Z,-5.04
2022-12-18T01:58:40.474Z,-5.03
2022-12-18T02:03:44.373Z,-5.03
2022-12-18T02:08:52.113Z,-5.18
2022-12-18T02:13:59.688Z,-5.29
2022-12-18T02:19:14.608Z,-5.53
2022-12-18T02:24:35.894Z,-5.58
2022-12-18T02:29:51.664Z,-5.60
2022-12-18T02:34:58.529Z,-5.45
2022-12-18T02:40:05.482Z,-5.46
2022-12-18T02:45:08.988Z,-5.39
2022-12-18T02:50:28.248Z,-5.32
2022-12-18T02:55:52.810Z,-5.20
2022-12-18T03:01:25.414Z,-5.10
2022-12-18T03:06:34.859Z,-4.98
2022-12-18T03:11:41.258Z,-5.05
2022-12-18T03:16:43.417Z,-5.29
2022-12-18T03:21:54.532Z,-5.69
2022-12-18T03:27:01.522Z,-5.86
2022-12-18T03:32:09.011Z,-6.00
2022-12-18T03:37:11.728Z,-6.22
2022-12-18T03:42:26.726Z,-6.11
2022-12-18T03:47:50.645Z,-5.73
2022-12-18T03:52:58.088Z,-5.66
2022-12-18T03:58:02.460Z,-5.93
2022-12-18T04:03:15.429Z,-6.12
2022-12-18T04:08:22.956Z,-6.21
2022-12-18T04:13:39.744Z,-6.29
2022-12-18T04:18:46.330Z,-6.24
2022-12-18T04:23:49.868Z,-6.48
2022-12-18T04:28:54.230Z,-6.71
2022-12-18T04:33:56.172Z,-6.89
2022-12-18T04:38:58.479Z,-6.87
2022-12-18T04:44:00.504Z,-6.93
2022-12-18T04:49:02.077Z,-7.04
2022-12-18T04:54:04.070Z,-7.16
2022-12-18T04:59:05.575Z,-7.17
2022-12-18T05:04:07.098Z,-7.23
2022-12-18T05:09:08.730Z,-7.31
2022-12-18T05:14:11.231Z,-7.43
2022-12-18T05:19:12.746Z,-7.41
2022-12-18T05:24:15.005Z,-7.49
2022-12-18T05:29:16.529Z,-7.31
2022-12-18T05:34:18.067Z,-7.05
2022-12-18T05:39:19.564Z,-6.19
2022-12-18T05:44:21.103Z,-5.53
2022-12-18T05:49:22.596Z,-5.50
2022-12-18T05:54:24.118Z,-5.43
2022-12-18T05:59:25.626Z,-5.45
2022-12-18T06:04:28.426Z,-5.42
2022-12-18T06:09:30.368Z,-5.77
2022-12-18T06:14:31.915Z,-6.14
2022-12-18T06:19:33.383Z,-6.46
2022-12-18T06:24:36.237Z,-6.75
2022-12-18T06:29:37.752Z,-6.99
2022-12-18T06:34:39.239Z,-7.21
2022-12-18T06:39:40.735Z,-7.26
2022-12-18T06:44:42.231Z,-7.30
2022-12-18T06:49:44.199Z,-7.43
2022-12-18T06:54:45.711Z,-7.34
2022-12-18T06:59:47.232Z,-7.26
2022-12-18T07:04:51.836Z,-7.30
2022-12-18T07:09:53.362Z,-7.47
2022-12-18T07:14:54.872Z,-7.63
2022-12-18T07:19:56.546Z,-7.71
2022-12-18T07:24:58.124Z,-7.51
2022-12-18T07:29:59.603Z,-7.37
2022-12-18T07:35:01.125Z,-7.35
2022-12-18T07:40:02.702Z,-7.26
2022-12-18T07:45:04.964Z,-7.09
2022-12-18T07:50:06.899Z,-7.14
2022-12-18T07:55:08.842Z,-7.09
2022-12-18T08:00:11.351Z,-6.96
2022-12-18T08:05:15.599Z,-6.66
2022-12-18T08:10:17.576Z,-6.43
2022-12-18T08:15:19.184Z,-6.29
2022-12-18T08:20:20.707Z,-6.07
2022-12-18T08:25:23.302Z,-5.86
2022-12-18T08:30:24.893Z,-5.70
2022-12-18T08:35:26.436Z,-5.40
2022-12-18T08:40:27.915Z,-5.09
2022-12-18T08:45:29.450Z,-4.74
2022-12-18T08:50:30.996Z,-4.24
2022-12-18T08:55:32.634Z,-3.81
2022-12-18T09:00:34.093Z,-3.37
2022-12-18T09:05:35.634Z,-2.87
2022-12-18T09:10:45.942Z,-2.80
2022-12-18T09:15:51.547Z,-2.54
2022-12-18T09:20:53.094Z,-2.49
2022-12-18T09:25:59.803Z,-2.59
2022-12-18T09:31:06.212Z,-2.30
2022-12-18T09:36:10.026Z,-2.00
2022-12-18T09:41:40.023Z,-1.71
2022-12-18T09:46:47.685Z,-1.88
2022-12-18T09:51:55.600Z,-1.92
2022-12-18T09:56:57.149Z,-1.80
2022-12-18T10:01:58.740Z,-1.34
2022-12-18T10:07:18.484Z,-1.31
2022-12-18T10:12:42.399Z,-1.38
2022-12-18T10:17:56.249Z,-1.05
2022-12-18T10:23:26.603Z,-0.78
2022-12-18T10:28:38.679Z,-0.47
2022-12-18T10:33:40.355Z,-0.57
2022-12-18T10:38:42.892Z,-0.52
2022-12-18T10:43:45.026Z,-0.36
2022-12-18T10:48:52.897Z,-0.46
2022-12-18T10:53:58.755Z,-0.46
2022-12-18T10:59:09.022Z,-0.35
2022-12-18T11:04:10.725Z,-0.67
2022-12-18T11:09:24.166Z,-0.45
2022-12-18T11:14:38.327Z,-0.47
2022-12-18T11:19:42.506Z,-0.22
2022-12-18T11:24:53.138Z,-0.35
2022-12-18T11:30:20.580Z,-0.46
2022-12-18T11:35:48.105Z,-0.45
2022-12-18T11:41:07.577Z,-0.55
2022-12-18T11:46:20.035Z,-0.54
2022-12-18T11:51:29.461Z,-0.69
2022-12-18T11:56:36.920Z,-0.78
2022-12-18T12:01:53.482Z,-0.78
2022-12-18T12:07:03.317Z,-0.96
2022-12-18T12:12:48.052Z,-1.01
2022-12-18T12:18:00.162Z,-0.94
2022-12-18T12:23:20.006Z,-0.97
2022-12-18T12:28:47.681Z,-1.02
2022-12-18T12:34:07.340Z,-1.01
2022-12-18T12:39:15.760Z,-0.95
2022-12-18T12:44:24.305Z,-1.02
2022-12-18T12:49:29.805Z,-0.92
2022-12-18T12:54:33.725Z,-0.83
2022-12-18T12:59:35.294Z,-0.69
2022-12-18T13:04:50.330Z,-0.68
2022-12-18T13:10:19.591Z,-0.60
2022-12-18T13:15:26.185Z,-0.67
2022-12-18T13:20:35.153Z,-0.71
2022-12-18T13:25:38.980Z,-0.51
2022-12-18T13:30:55.340Z,-0.53
2022-12-18T13:36:28.099Z,-0.58
2022-12-18T13:41:29.786Z,-0.44
2022-12-18T13:46:46.446Z,-0.51
2022-12-18T13:51:51.570Z,-0.55
2022-12-18T13:56:54.009Z,-0.41
2022-12-18T14:01:58.423Z,-0.54
2022-12-18T14:07:11.543Z,-0.53
2022-12-18T14:12:24.867Z,-0.65
2022-12-18T14:17:27.625Z,-0.66
2022-12-18T14:22:30.125Z,-0.62
2022-12-18T14:27:31.593Z,-0.60
2022-12-18T14:32:33.097Z,-0.76
2022-12-18T14:37:34.593Z,-0.86
2022-12-18T14:42:36.140Z,-0.83
2022-12-18T14:47:37.721Z,-0.92
2022-12-18T14:52:39.550Z,-0.94
2022-12-18T14:57:41.114Z,-0.99
2022-12-18T15:02:45.915Z,-1.01
2022-12-18T15:07:52.775Z,-1.05
2022-12-18T15:12:57.092Z,-1.07
2022-12-18T15:18:04.024Z,-1.11
2022-12-18T15:23:05.731Z,-1.14
2022-12-18T15:28:31.985Z,-1.20
2022-12-18T15:33:39.157Z,-1.27
2022-12-18T15:38:41.645Z,-1.20
2022-12-18T15:43:43.713Z,-1.27
2022-12-18T15:48:59.638Z,-1.29
2022-12-18T15:54:05.844Z,-1.14
2022-12-18T15:59:19.463Z,-1.17
2022-12-18T16:04:22.958Z,-1.11
2022-12-18T16:09:26.409Z,-1.23
2022-12-18T16:14:30.737Z,-1.17
2022-12-18T16:19:32.254Z,-1.07
2022-12-18T16:24:34.623Z,-1.10
2022-12-18T16:29:36.126Z,-1.07
2022-12-18T16:34:37.630Z,-1.12
2022-12-18T16:39:40.137Z,-1.07
2022-12-18T16:44:42.187Z,-1.05
2022-12-18T16:49:44.363Z,-1.04
2022-12-18T16:54:45.927Z,-1.08
2022-12-18T16:59:47.742Z,-1.10
2022-12-18T17:04:50.680Z,-1.11
2022-12-18T17:09:52.151Z,-1.17
2022-12-18T17:14:53.679Z,-1.11
2022-12-18T17:19:55.143Z,-1.06
2022-12-18T17:24:56.654Z,-1.09
2022-12-18T17:29:58.157Z,-1.10
2022-12-18T17:35:03.912Z,-1.27
2022-12-18T17:40:10.430Z,-1.21
2022-12-18T17:45:11.914Z,-1.33
2022-12-18T17:50:13.429Z,-1.31
2022-12-18T17:55:15.057Z,-1.33
2022-12-18T18:00:16.972Z,-1.23
2022-12-18T18:05:18.437Z,-1.28
2022-12-18T18:10:19.933Z,-1.29
2022-12-18T18:15:21.469Z,-1.37
2022-12-18T18:20:23.071Z,-1.36
2022-12-18T18:25:24.732Z,-1.31
2022-12-18T18:30:27.386Z,-1.24
2022-12-18T18:35:52.936Z,-1.25
2022-12-18T18:41:01.601Z,-1.10
2022-12-18T18:46:05.088Z,-1.09
2022-12-18T18:51:10.639Z,-1.01
2022-12-18T18:56:45.529Z,-1.01
2022-12-18T19:01:38.613Z,-0.99
2022-12-18T19:06:40.213Z,-1.04
2022-12-18T19:11:42.344Z,-1.08
2022-12-18T19:16:44.310Z,-1.06
2022-12-18T19:21:46.442Z,-1.01
2022-12-18T19:26:48.035Z,-1.02
2022-12-18T19:31:49.590Z,-1.01
2022-12-18T19:36:56.480Z,-1.00
2022-12-18T19:42:01.069Z,-0.98
2022-12-18T19:47:02.595Z,-0.91
2022-12-18T19:52:04.265Z,-0.94
2022-12-18T19:57:05.850Z,-0.82
2022-12-18T20:02:14.398Z,-0.87
2022-12-18T20:07:16.026Z,-0.74
2022-12-18T20:12:17.533Z,-0.80
2022-12-18T20:17:19.093Z,-0.69
2022-12-18T20:22:20.930Z,-0.73
2022-12-18T20:27:22.515Z,-0.73
2022-12-18T20:32:25.661Z,-0.71
2022-12-18T20:37:27.149Z,-0.76
2022-12-18T20:42:29.171Z,-0.78
2022-12-18T20:47:30.681Z,-0.82
2022-12-18T20:52:32.239Z,-0.77
2022-12-18T20:57:33.779Z,-0.73
2022-12-18T21:02:37.033Z,-0.70
2022-12-18T21:07:38.598Z,-0.67
2022-12-18T21:12:49.246Z,-0.65
2022-12-18T21:18:01.788Z,-0.63
2022-12-18T21:23:12.037Z,-0.59
2022-12-18T21:28:18.255Z,-0.59
2022-12-18T21:33:19.780Z,-0.60
2022-12-18T21:38:21.311Z,-0.53
2022-12-18T21:43:22.996Z,-0.58
2022-12-18T21:48:24.482Z,-0.43
2022-12-18T21:53:26.062Z,-0.48
2022-12-18T21:58:27.999Z,-0.44
2022-12-18T22:03:29.604Z,-0.45
2022-12-18T22:08:31.224Z,-0.50
2022-12-18T22:13:33.088Z,-0.46
2022-12-18T22:18:34.574Z,-0.37
2022-12-18T22:23:36.062Z,-0.38
2022-12-18T22:28:37.582Z,-0.33
2022-12-18T22:33:39.081Z,-0.33
2022-12-18T22:38:40.582Z,-0.24
2022-12-18T22:43:42.258Z,-0.27
2022-12-18T22:48:43.882Z,-0.24
2022-12-18T22:53:45.785Z,-0.27
2022-12-18T22:58:51.384Z,-0.15
2022-12-18T23:03:53.681Z,-0.11
2022-12-18T23:08:56.589Z,0.06
2022-12-18T23:13:58.080Z,-0.01
2022-12-18T23:19:00.401Z,0.04
2022-12-18T23:24:02.032Z,0.18
2022-12-18T23:29:03.932Z,0.19
2022-12-18T23:34:06.878Z,0.20
2022-12-18T23:39:11.869Z,0.26
2022-12-18T23:44:16.871Z,0.33
2022-12-18T23:49:18.369Z,0.37
2022-12-18T23:54:32.770Z,0.43
2022-12-18T23:59:34.800Z,0.44
